sensor_id;sensor_type;location;lat;lon;timestamp;pressure;altitude;pressure_sealevel;temperature;humidity
40982;BME280;26708;50.304;19.028;2022-10-30T00:00:12;98880.97;;;16.47;72.33
40982;BME280;26708;50.304;19.028;2022-10-30T00:03:14;98894.09;;;16.50;72.35
40982;BME280;26708;50.304;19.028;2022-10-30T00:06:15;98900.19;;;16.53;71.94
40982;BME280;26708;50.304;19.028;2022-10-30T00:09:16;98894.97;;;16.49;71.91
40982;BME280;26708;50.304;19.028;2022-10-30T00:12:18;98860.03;;;16.33;71.81
40982;BME280;26708;50.304;19.028;2022-10-30T00:15:18;98870.50;;;16.41;72.07
40982;BME280;26708;50.304;19.028;2022-10-30T00:18:19;98865.28;;;16.39;72.01
40982;BME280;26708;50.304;19.028;2022-10-30T00:21:20;98864.41;;;16.40;72.40
40982;BME280;26708;50.304;19.028;2022-10-30T00:24:21;98874.03;;;16.43;72.27
40982;BME280;26708;50.304;19.028;2022-10-30T00:27:22;98859.16;;;16.33;72.12
40982;BME280;26708;50.304;19.028;2022-10-30T00:30:22;98878.31;;;16.50;71.90
40982;BME280;26708;50.304;19.028;2022-10-30T00:33:23;98887.97;;;16.48;71.82
40982;BME280;26708;50.304;19.028;2022-10-30T00:36:24;98879.31;;;16.37;71.57
40982;BME280;26708;50.304;19.028;2022-10-30T00:39:24;98895.06;;;16.41;72.04
40982;BME280;26708;50.304;19.028;2022-10-30T00:42:30;98879.31;;;16.32;72.01
40982;BME280;26708;50.304;19.028;2022-10-30T00:45:31;98880.25;;;16.24;72.46
40982;BME280;26708;50.304;19.028;2022-10-30T00:48:33;98874.13;;;16.19;72.11
40982;BME280;26708;50.304;19.028;2022-10-30T00:51:36;98891.59;;;16.29;72.51
40982;BME280;26708;50.304;19.028;2022-10-30T00:54:38;98877.66;;;16.21;72.50
40982;BME280;26708;50.304;19.028;2022-10-30T00:57:40;98873.31;;;16.14;72.40
40982;BME280;26708;50.304;19.028;2022-10-30T01:00:48;98839.28;;;15.99;72.56
40982;BME280;26708;50.304;19.028;2022-10-30T01:03:57;98883.75;;;16.23;72.45
40982;BME280;26708;50.304;19.028;2022-10-30T01:07:06;98834.00;;;15.99;72.55
40982;BME280;26708;50.304;19.028;2022-10-30T01:10:09;98796.47;;;15.85;72.45
40982;BME280;26708;50.304;19.028;2022-10-30T01:13:11;98862.81;;;16.14;72.21
40982;BME280;26708;50.304;19.028;2022-10-30T01:26:38;98876.88;;;16.08;70.89
40982;BME280;26708;50.304;19.028;2022-10-30T01:33:15;98885.66;;;15.98;70.89
40982;BME280;26708;50.304;19.028;2022-10-30T01:36:32;98888.31;;;15.94;71.03
40982;BME280;26708;50.304;19.028;2022-10-30T01:39:38;98876.94;;;15.92;70.92
40982;BME280;26708;50.304;19.028;2022-10-30T01:42:47;98883.09;;;15.89;71.12
40982;BME280;26708;50.304;19.028;2022-10-30T01:46:06;98872.59;;;15.89;71.20
40982;BME280;26708;50.304;19.028;2022-10-30T02:02:11;98883.16;;;15.77;71.07
40982;BME280;26708;50.304;19.028;2022-10-30T02:05:30;98884.94;;;15.74;70.64
40982;BME280;26708;50.304;19.028;2022-10-30T02:08:33;98843.94;;;15.46;71.00
40982;BME280;26708;50.304;19.028;2022-10-30T02:11:34;98884.09;;;15.66;71.05
40982;BME280;26708;50.304;19.028;2022-10-30T02:14:40;98837.84;;;15.38;70.89
40982;BME280;26708;50.304;19.028;2022-10-30T02:17:44;98848.38;;;15.35;71.19
40982;BME280;26708;50.304;19.028;2022-10-30T02:25:26;98849.22;;;15.26;72.22
40982;BME280;26708;50.304;19.028;2022-10-30T02:28:29;98820.41;;;15.12;73.26
40982;BME280;26708;50.304;19.028;2022-10-30T02:31:29;98788.16;;;14.90;72.64
40982;BME280;26708;50.304;19.028;2022-10-30T02:34:30;98845.72;;;15.27;73.63
40982;BME280;26708;50.304;19.028;2022-10-30T02:37:31;98846.63;;;15.31;73.97
40982;BME280;26708;50.304;19.028;2022-10-30T02:40:35;98816.06;;;15.09;74.44
40982;BME280;26708;50.304;19.028;2022-10-30T02:43:36;98853.59;;;15.32;74.60
40982;BME280;26708;50.304;19.028;2022-10-30T02:46:36;98848.34;;;15.36;73.94
40982;BME280;26708;50.304;19.028;2022-10-30T02:49:37;98845.72;;;15.36;73.80
40982;BME280;26708;50.304;19.028;2022-10-30T02:52:38;98816.88;;;15.33;73.67
40982;BME280;26708;50.304;19.028;2022-10-30T02:55:39;98839.56;;;15.43;73.67
40982;BME280;26708;50.304;19.028;2022-10-30T02:58:41;98850.00;;;15.57;73.59
40982;BME280;26708;50.304;19.028;2022-10-30T03:01:42;98863.97;;;15.60;73.56
40982;BME280;26708;50.304;19.028;2022-10-30T03:04:47;98860.47;;;15.66;73.65
40982;BME280;26708;50.304;19.028;2022-10-30T03:07:49;98849.97;;;15.64;73.24
40982;BME280;26708;50.304;19.028;2022-10-30T03:10:51;98848.22;;;15.68;73.29
40982;BME280;26708;50.304;19.028;2022-10-30T03:13:58;98851.69;;;15.73;73.19
40982;BME280;26708;50.304;19.028;2022-10-30T03:16:58;98846.47;;;15.67;73.52
40982;BME280;26708;50.304;19.028;2022-10-30T03:19:59;98853.44;;;15.65;73.44
40982;BME280;26708;50.304;19.028;2022-10-30T03:23:00;98826.44;;;15.45;73.74
40982;BME280;26708;50.304;19.028;2022-10-30T03:26:01;98857.88;;;15.58;74.11
40982;BME280;26708;50.304;19.028;2022-10-30T03:29:03;98862.19;;;15.70;74.08
40982;BME280;26708;50.304;19.028;2022-10-30T03:32:09;98862.19;;;15.71;74.12
40982;BME280;26708;50.304;19.028;2022-10-30T03:35:17;98822.91;;;15.49;74.32
40982;BME280;26708;50.304;19.028;2022-10-30T03:38:18;98856.09;;;15.69;74.30
40982;BME280;26708;50.304;19.028;2022-10-30T03:41:19;98844.72;;;15.63;74.39
40982;BME280;26708;50.304;19.028;2022-10-30T03:44:20;98866.53;;;15.75;74.36
40982;BME280;26708;50.304;19.028;2022-10-30T03:47:21;98871.78;;;15.75;74.81
40982;BME280;26708;50.304;19.028;2022-10-30T03:50:22;98829.88;;;15.59;74.85
40982;BME280;26708;50.304;19.028;2022-10-30T03:53:24;98851.66;;;15.74;74.99
40982;BME280;26708;50.304;19.028;2022-10-30T03:56:25;98852.53;;;15.73;74.77
40982;BME280;26708;50.304;19.028;2022-10-30T03:59:31;98869.16;;;15.78;75.02
40982;BME280;26708;50.304;19.028;2022-10-30T04:02:52;98861.25;;;15.80;74.69
40982;BME280;26708;50.304;19.028;2022-10-30T04:05:53;98830.72;;;15.67;74.61
40982;BME280;26708;50.304;19.028;2022-10-30T04:08:54;98841.16;;;15.76;74.75
40982;BME280;26708;50.304;19.028;2022-10-30T04:11:55;98837.69;;;15.71;74.91
40982;BME280;26708;50.304;19.028;2022-10-30T04:14:56;98799.31;;;15.47;75.31
40982;BME280;26708;50.304;19.028;2022-10-30T04:17:57;98835.06;;;15.69;75.34
40982;BME280;26708;50.304;19.028;2022-10-30T04:20:58;98813.28;;;15.54;75.32
40982;BME280;26708;50.304;19.028;2022-10-30T04:23:59;98819.41;;;15.54;75.22
40982;BME280;26708;50.304;19.028;2022-10-30T04:27:03;98866.56;;;15.74;74.98
40982;BME280;26708;50.304;19.028;2022-10-30T04:30:04;98854.34;;;15.67;75.05
40982;BME280;26708;50.304;19.028;2022-10-30T04:33:10;98869.13;;;15.80;74.70
40982;BME280;26708;50.304;19.028;2022-10-30T04:36:12;98876.13;;;15.84;74.91
40982;BME280;26708;50.304;19.028;2022-10-30T04:39:12;98826.38;;;15.57;74.90
40982;BME280;26708;50.304;19.028;2022-10-30T04:42:14;98878.75;;;15.85;74.63
40982;BME280;26708;50.304;19.028;2022-10-30T04:45:17;98881.34;;;15.87;74.34
40982;BME280;26708;50.304;19.028;2022-10-30T04:48:18;98818.53;;;15.54;74.55
40982;BME280;26708;50.304;19.028;2022-10-30T04:51:20;98858.66;;;15.77;74.78
40982;BME280;26708;50.304;19.028;2022-10-30T04:54:21;98860.41;;;15.78;74.59
40982;BME280;26708;50.304;19.028;2022-10-30T04:57:22;98861.31;;;15.74;74.91
40982;BME280;26708;50.304;19.028;2022-10-30T05:00:23;98872.63;;;15.82;74.88
40982;BME280;26708;50.304;19.028;2022-10-30T05:03:25;98847.34;;;15.63;74.83
40982;BME280;26708;50.304;19.028;2022-10-30T05:06:28;98806.28;;;15.51;75.01
40982;BME280;26708;50.304;19.028;2022-10-30T05:09:30;98841.19;;;15.70;75.05
40982;BME280;26708;50.304;19.028;2022-10-30T05:12:31;98736.56;;;15.00;74.54
40982;BME280;26708;50.304;19.028;2022-10-30T05:15:32;98762.72;;;15.13;74.59
40982;BME280;26708;50.304;19.028;2022-10-30T05:18:33;98858.69;;;15.68;75.06
40982;BME280;26708;50.304;19.028;2022-10-30T05:21:36;98871.78;;;15.78;75.37
40982;BME280;26708;50.304;19.028;2022-10-30T05:24:38;98863.91;;;15.77;74.82
40982;BME280;26708;50.304;19.028;2022-10-30T05:27:39;98751.34;;;15.13;74.99
40982;BME280;26708;50.304;19.028;2022-10-30T05:30:43;98825.50;;;15.61;75.07
40982;BME280;26708;50.304;19.028;2022-10-30T05:33:55;98843.81;;;15.70;75.16
40982;BME280;26708;50.304;19.028;2022-10-30T05:36:57;98834.22;;;15.63;75.35
40982;BME280;26708;50.304;19.028;2022-10-30T05:39:58;98829.91;;;15.54;75.31
40982;BME280;26708;50.304;19.028;2022-10-30T05:43:00;98853.44;;;15.68;75.78
40982;BME280;26708;50.304;19.028;2022-10-30T05:46:02;98764.50;;;15.02;75.71
40982;BME280;26708;50.304;19.028;2022-10-30T05:49:04;98847.38;;;15.61;75.38
40982;BME280;26708;50.304;19.028;2022-10-30T05:52:05;98829.91;;;15.51;75.44
40982;BME280;26708;50.304;19.028;2022-10-30T05:55:06;98867.44;;;15.71;75.61
40982;BME280;26708;50.304;19.028;2022-10-30T05:58:21;98805.47;;;15.28;75.26
40982;BME280;26708;50.304;19.028;2022-10-30T06:01:23;98873.56;;;15.70;75.54
40982;BME280;26708;50.304;19.028;2022-10-30T06:04:28;98824.69;;;15.42;75.55
40982;BME280;26708;50.304;19.028;2022-10-30T06:07:29;98882.34;;;15.69;75.64
40982;BME280;26708;50.304;19.028;2022-10-30T06:10:31;98889.28;;;15.72;75.68
40982;BME280;26708;50.304;19.028;2022-10-30T06:13:41;98852.63;;;15.57;75.60
40982;BME280;26708;50.304;19.028;2022-10-30T06:16:46;98873.53;;;15.72;75.50
40982;BME280;26708;50.304;19.028;2022-10-30T06:19:50;98869.13;;;15.81;75.36
40982;BME280;26708;50.304;19.028;2022-10-30T06:23:17;98857.78;;;15.72;75.39
40982;BME280;26708;50.304;19.028;2022-10-30T06:26:22;98876.16;;;15.78;75.57
40982;BME280;26708;50.304;19.028;2022-10-30T06:29:26;98835.16;;;15.53;75.40
40982;BME280;26708;50.304;19.028;2022-10-30T06:32:27;98877.06;;;15.65;75.94
40982;BME280;26708;50.304;19.028;2022-10-30T06:35:28;98846.53;;;15.52;75.41
40982;BME280;26708;50.304;19.028;2022-10-30T06:38:29;98879.69;;;15.71;75.46
40982;BME280;26708;50.304;19.028;2022-10-30T06:41:31;98882.34;;;15.62;75.73
40982;BME280;26708;50.304;19.028;2022-10-30T06:44:54;98897.19;;;15.69;75.95
40982;BME280;26708;50.304;19.028;2022-10-30T06:47:56;98869.25;;;15.59;75.87
40982;BME280;26708;50.304;19.028;2022-10-30T06:50:59;98891.94;;;15.69;75.79
40982;BME280;26708;50.304;19.028;2022-10-30T06:54:02;98910.31;;;15.69;75.70
40982;BME280;26708;50.304;19.028;2022-10-30T06:57:13;98903.34;;;15.69;76.00
40982;BME280;26708;50.304;19.028;2022-10-30T07:00:34;98790.72;;;15.08;76.04
40982;BME280;26708;50.304;19.028;2022-10-30T07:03:50;98872.72;;;15.64;75.90
40982;BME280;26708;50.304;19.028;2022-10-30T07:06:51;98861.31;;;15.66;76.21
40982;BME280;26708;50.304;19.028;2022-10-30T07:09:55;98888.34;;;15.88;75.97
40982;BME280;26708;50.304;19.028;2022-10-30T07:13:07;98886.56;;;15.94;75.70
40982;BME280;26708;50.304;19.028;2022-10-30T07:16:32;98901.44;;;15.95;75.42
40982;BME280;26708;50.304;19.028;2022-10-30T07:19:34;98876.09;;;15.88;75.83
40982;BME280;26708;50.304;19.028;2022-10-30T07:22:37;98905.81;;;15.98;75.79
40982;BME280;26708;50.304;19.028;2022-10-30T07:25:38;98907.53;;;16.05;75.74
40982;BME280;26708;50.304;19.028;2022-10-30T07:28:56;98912.72;;;16.11;75.46
40982;BME280;26708;50.304;19.028;2022-10-30T07:32:12;98908.34;;;16.13;75.30
40982;BME280;26708;50.304;19.028;2022-10-30T07:35:45;98908.28;;;16.19;75.13
40982;BME280;26708;50.304;19.028;2022-10-30T07:39:05;98887.28;;;16.22;74.91
40982;BME280;26708;50.304;19.028;2022-10-30T07:42:13;98866.28;;;16.16;74.80
40982;BME280;26708;50.304;19.028;2022-10-30T07:45:38;98889.84;;;16.31;74.38
40982;BME280;26708;50.304;19.028;2022-10-30T07:49:05;98867.25;;;16.06;74.58
40982;BME280;26708;50.304;19.028;2022-10-30T07:52:16;98880.34;;;16.09;74.96
40982;BME280;26708;50.304;19.028;2022-10-30T07:55:17;98893.34;;;16.27;75.37
40982;BME280;26708;50.304;19.028;2022-10-30T07:58:17;98885.44;;;16.33;74.93
40982;BME280;26708;50.304;19.028;2022-10-30T08:01:50;98887.97;;;16.49;74.43
40982;BME280;26708;50.304;19.028;2022-10-30T08:05:21;98894.06;;;16.56;74.25
40982;BME280;26708;50.304;19.028;2022-10-30T08:08:36;98890.50;;;16.66;73.97
40982;BME280;26708;50.304;19.028;2022-10-30T08:12:00;98876.44;;;16.67;74.15
40982;BME280;26708;50.304;19.028;2022-10-30T08:15:01;98891.22;;;16.80;73.32
40982;BME280;26708;50.304;19.028;2022-10-30T08:18:02;98885.06;;;16.81;72.98
40982;BME280;26708;50.304;19.028;2022-10-30T08:21:03;98885.91;;;16.86;73.25
40982;BME280;26708;50.304;19.028;2022-10-30T08:24:04;98890.22;;;16.93;73.38
40982;BME280;26708;50.304;19.028;2022-10-30T08:27:08;98871.00;;;16.86;73.04
40982;BME280;26708;50.304;19.028;2022-10-30T08:30:10;98875.34;;;16.89;73.10
40982;BME280;26708;50.304;19.028;2022-10-30T08:33:12;98891.03;;;17.02;72.81
40982;BME280;26708;50.304;19.028;2022-10-30T08:36:19;98871.72;;;17.05;72.94
40982;BME280;26708;50.304;19.028;2022-10-30T08:39:20;98856.78;;;17.05;72.63
40982;BME280;26708;50.304;19.028;2022-10-30T08:42:34;98874.97;;;17.26;72.31
40982;BME280;26708;50.304;19.028;2022-10-30T08:45:40;98879.22;;;17.39;72.25
40982;BME280;26708;50.304;19.028;2022-10-30T08:48:47;98868.56;;;17.50;72.09
40982;BME280;26708;50.304;19.028;2022-10-30T08:51:48;98818.88;;;17.20;71.23
40982;BME280;26708;50.304;19.028;2022-10-30T08:54:49;98827.34;;;17.49;70.95
40982;BME280;26708;50.304;19.028;2022-10-30T08:57:50;98853.47;;;17.67;70.10
40982;BME280;26708;50.304;19.028;2022-10-30T09:00:51;98856.03;;;17.71;70.46
40982;BME280;26708;50.304;19.028;2022-10-30T09:03:52;98855.84;;;17.83;70.75
40982;BME280;26708;50.304;19.028;2022-10-30T09:07:11;98859.22;;;17.94;70.61
40982;BME280;26708;50.304;19.028;2022-10-30T09:10:41;98824.28;;;17.80;69.77
40982;BME280;26708;50.304;19.028;2022-10-30T09:13:42;98833.66;;;17.99;69.80
40982;BME280;26708;50.304;19.028;2022-10-30T09:16:45;98857.16;;;18.13;69.33
40982;BME280;26708;50.304;19.028;2022-10-30T09:19:48;98844.81;;;18.18;69.40
40982;BME280;26708;50.304;19.028;2022-10-30T09:22:55;98849.91;;;18.28;69.17
40982;BME280;26708;50.304;19.028;2022-10-30T09:25:57;98840.25;;;18.29;68.65
40982;BME280;26708;50.304;19.028;2022-10-30T09:29:27;98817.47;;;18.25;68.60
40982;BME280;26708;50.304;19.028;2022-10-30T09:32:29;98856.59;;;18.52;68.36
40982;BME280;26708;50.304;19.028;2022-10-30T09:35:42;98822.44;;;18.44;68.35
40982;BME280;26708;50.304;19.028;2022-10-30T09:38:43;98840.50;;;18.67;68.25
40982;BME280;26708;50.304;19.028;2022-10-30T09:52:07;98846.97;;;18.98;66.65
40982;BME280;26708;50.304;19.028;2022-10-30T10:09:15;98824.50;;;19.26;65.79
40982;BME280;26708;50.304;19.028;2022-10-30T10:12:45;98835.53;;;19.46;65.40
40982;BME280;26708;50.304;19.028;2022-10-30T10:15:53;98810.16;;;19.39;64.79
40982;BME280;26708;50.304;19.028;2022-10-30T10:19:15;98833.41;;;19.62;64.57
40982;BME280;26708;50.304;19.028;2022-10-30T10:22:25;98834.16;;;19.67;64.34
40982;BME280;26708;50.304;19.028;2022-10-30T10:25:29;98837.47;;;19.78;64.19
40982;BME280;26708;50.304;19.028;2022-10-30T10:39:06;98806.03;;;20.06;62.87
40982;BME280;26708;50.304;19.028;2022-10-30T10:42:18;98826.59;;;20.30;62.46
40982;BME280;26708;50.304;19.028;2022-10-30T10:49:12;98811.94;;;20.52;62.05
40982;BME280;26708;50.304;19.028;2022-10-30T10:52:20;98808.28;;;20.57;61.01
40982;BME280;26708;50.304;19.028;2022-10-30T10:55:34;98780.09;;;20.55;60.82
40982;BME280;26708;50.304;19.028;2022-10-30T10:58:50;98806.78;;;20.81;60.55
40982;BME280;26708;50.304;19.028;2022-10-30T11:05:38;98801.72;;;21.05;59.58
40982;BME280;26708;50.304;19.028;2022-10-30T11:08:41;98785.75;;;21.08;59.52
40982;BME280;26708;50.304;19.028;2022-10-30T11:11:43;98720.41;;;20.77;59.20
40982;BME280;26708;50.304;19.028;2022-10-30T11:14:44;98775.09;;;21.10;58.94
40982;BME280;26708;50.304;19.028;2022-10-30T11:18:02;98805.34;;;21.33;58.79
40982;BME280;26708;50.304;19.028;2022-10-30T11:21:15;98769.38;;;21.25;58.69
40982;BME280;26708;50.304;19.028;2022-10-30T11:24:29;98792.09;;;21.33;58.42
40982;BME280;26708;50.304;19.028;2022-10-30T11:27:31;98799.88;;;21.39;58.65
40982;BME280;26708;50.304;19.028;2022-10-30T11:30:33;98743.38;;;21.08;58.80
40982;BME280;26708;50.304;19.028;2022-10-30T11:33:34;98797.16;;;21.41;58.80
40982;BME280;26708;50.304;19.028;2022-10-30T11:36:36;98728.66;;;20.98;58.34
40982;BME280;26708;50.304;19.028;2022-10-30T11:39:37;98782.31;;;21.35;58.51
40982;BME280;26708;50.304;19.028;2022-10-30T11:42:42;98782.94;;;21.45;58.33
40982;BME280;26708;50.304;19.028;2022-10-30T11:45:44;98810.91;;;21.55;58.32
40982;BME280;26708;50.304;19.028;2022-10-30T11:48:46;98792.34;;;21.55;58.04
40982;BME280;26708;50.304;19.028;2022-10-30T11:51:58;98783.47;;;21.56;57.63
40982;BME280;26708;50.304;19.028;2022-10-30T11:55:09;98790.16;;;21.70;57.79
40982;BME280;26708;50.304;19.028;2022-10-30T11:58:22;98793.44;;;21.78;57.46
40982;BME280;26708;50.304;19.028;2022-10-30T12:01:26;98774.00;;;21.78;57.16
40982;BME280;26708;50.304;19.028;2022-10-30T12:04:29;98777.31;;;21.84;57.14
40982;BME280;26708;50.304;19.028;2022-10-30T12:07:32;98776.19;;;21.93;57.02
40982;BME280;26708;50.304;19.028;2022-10-30T12:11:01;98785.81;;;21.95;56.47
40982;BME280;26708;50.304;19.028;2022-10-30T12:14:00;98781.38;;;21.96;56.17
40982;BME280;26708;50.304;19.028;2022-10-30T12:17:02;98781.38;;;21.96;56.33
40982;BME280;26708;50.304;19.028;2022-10-30T12:20:04;98759.63;;;21.85;56.26
40982;BME280;26708;50.304;19.028;2022-10-30T12:23:10;98774.53;;;21.89;55.96
40982;BME280;26708;50.304;19.028;2022-10-30T12:26:14;98755.31;;;21.81;56.13
40982;BME280;26708;50.304;19.028;2022-10-30T12:29:17;98691.25;;;21.39;56.28
40982;BME280;26708;50.304;19.028;2022-10-30T12:32:20;98776.94;;;21.96;55.82
40982;BME280;26708;50.304;19.028;2022-10-30T12:38:44;98758.97;;;22.06;54.64
40982;BME280;26708;50.304;19.028;2022-10-30T12:41:58;98753.81;;;22.01;54.42
40982;BME280;26708;50.304;19.028;2022-10-30T12:45:29;98726.91;;;21.86;54.04
40982;BME280;26708;50.304;19.028;2022-10-30T12:48:49;98744.81;;;22.05;53.69
40982;BME280;26708;50.304;19.028;2022-10-30T12:52:33;98748.97;;;22.14;53.19
40982;BME280;26708;50.304;19.028;2022-10-30T12:55:40;98652.00;;;21.50;53.72
40982;BME280;26708;50.304;19.028;2022-10-30T12:58:53;98732.63;;;22.00;53.19
40982;BME280;26708;50.304;19.028;2022-10-30T13:02:00;98745.56;;;22.10;53.43
40982;BME280;26708;50.304;19.028;2022-10-30T13:08:31;98753.31;;;22.16;53.42
40982;BME280;26708;50.304;19.028;2022-10-30T13:11:47;98744.31;;;22.20;53.30
40982;BME280;26708;50.304;19.028;2022-10-30T13:14:54;98746.94;;;22.22;53.17
40982;BME280;26708;50.304;19.028;2022-10-30T13:17:58;98749.66;;;22.19;53.13
40982;BME280;26708;50.304;19.028;2022-10-30T13:24:18;98740.66;;;22.24;53.31
40982;BME280;26708;50.304;19.028;2022-10-30T13:27:41;98587.97;;;21.36;53.70
40982;BME280;26708;50.304;19.028;2022-10-30T13:31:02;98733.69;;;22.22;53.87
40982;BME280;26708;50.304;19.028;2022-10-30T13:42:00;98748.56;;;22.26;54.53
40982;BME280;26708;50.304;19.028;2022-10-30T13:56:18;98735.59;;;22.17;53.82
40982;BME280;26708;50.304;19.028;2022-10-30T13:59:24;98733.06;;;22.14;54.12
40982;BME280;26708;50.304;19.028;2022-10-30T14:02:32;98732.19;;;22.13;54.04
40982;BME280;26708;50.304;19.028;2022-10-30T14:16:01;98716.25;;;22.13;54.59
40982;BME280;26708;50.304;19.028;2022-10-30T14:19:13;98628.78;;;21.58;54.82
40982;BME280;26708;50.304;19.028;2022-10-30T14:22:22;98731.31;;;22.13;54.79
40982;BME280;26708;50.304;19.028;2022-10-30T14:25:24;98707.88;;;21.99;54.85
40982;BME280;26708;50.304;19.028;2022-10-30T14:28:25;98719.19;;;22.06;55.77
40982;BME280;26708;50.304;19.028;2022-10-30T14:31:35;98696.66;;;21.91;57.01
40982;BME280;26708;50.304;19.028;2022-10-30T14:47:32;98731.66;;;22.02;59.03
40982;BME280;26708;50.304;19.028;2022-10-30T14:50:58;98652.81;;;21.52;59.26
40982;BME280;26708;50.304;19.028;2022-10-30T14:54:08;98725.81;;;21.91;59.48
40982;BME280;26708;50.304;19.028;2022-10-30T14:57:22;98711.16;;;21.80;59.82
40982;BME280;26708;50.304;19.028;2022-10-30T15:00:42;98726.22;;;21.79;59.94
40982;BME280;26708;50.304;19.028;2022-10-30T15:07:12;98721.13;;;21.73;60.40
40982;BME280;26708;50.304;19.028;2022-10-30T15:10:50;98668.22;;;21.41;60.49
40982;BME280;26708;50.304;19.028;2022-10-30T15:14:04;98661.31;;;21.36;60.72
40982;BME280;26708;50.304;19.028;2022-10-30T15:17:32;98710.81;;;21.63;60.75
40982;BME280;26708;50.304;19.028;2022-10-30T15:20:38;98662.50;;;21.26;60.75
40982;BME280;26708;50.304;19.028;2022-10-30T15:23:40;98682.69;;;21.30;60.98
40982;BME280;26708;50.304;19.028;2022-10-30T15:26:44;98712.44;;;21.39;61.02
40982;BME280;26708;50.304;19.028;2022-10-30T15:29:55;98677.72;;;21.19;61.18
40982;BME280;26708;50.304;19.028;2022-10-30T15:32:59;98704.75;;;21.30;61.40
40982;BME280;26708;50.304;19.028;2022-10-30T15:36:00;98705.75;;;21.26;61.56
40982;BME280;26708;50.304;19.028;2022-10-30T15:39:12;98712.75;;;21.29;61.76
40982;BME280;26708;50.304;19.028;2022-10-30T15:42:14;98714.63;;;21.25;62.02
40982;BME280;26708;50.304;19.028;2022-10-30T15:45:31;98713.03;;;21.20;62.03
40982;BME280;26708;50.304;19.028;2022-10-30T15:48:34;98720.25;;;21.13;62.19
40982;BME280;26708;50.304;19.028;2022-10-30T15:51:35;98702.94;;;21.02;62.59
40982;BME280;26708;50.304;19.028;2022-10-30T15:54:40;98729.25;;;21.08;62.62
40982;BME280;26708;50.304;19.028;2022-10-30T15:57:46;98704.03;;;20.95;62.75
40982;BME280;26708;50.304;19.028;2022-10-30T16:00:57;98715.50;;;20.95;62.91
40982;BME280;26708;50.304;19.028;2022-10-30T16:03:59;98726.91;;;20.97;62.79
40982;BME280;26708;50.304;19.028;2022-10-30T16:07:07;98714.84;;;20.87;63.09
40982;BME280;26708;50.304;19.028;2022-10-30T16:10:16;98718.41;;;20.86;63.19
40982;BME280;26708;50.304;19.028;2022-10-30T16:13:20;98694.28;;;20.65;63.35
40982;BME280;26708;50.304;19.028;2022-10-30T16:16:27;98710.72;;;20.76;63.38
40982;BME280;26708;50.304;19.028;2022-10-30T16:19:37;98732.75;;;20.76;63.14
40982;BME280;26708;50.304;19.028;2022-10-30T16:22:39;98717.88;;;20.72;63.32
40982;BME280;26708;50.304;19.028;2022-10-30T16:25:40;98719.72;;;20.70;63.38
40982;BME280;26708;50.304;19.028;2022-10-30T16:28:46;98720.69;;;20.66;63.42
40982;BME280;26708;50.304;19.028;2022-10-30T16:31:48;98673.03;;;20.36;63.42
40982;BME280;26708;50.304;19.028;2022-10-30T16:34:54;98704.38;;;20.51;63.29
40982;BME280;26708;50.304;19.028;2022-10-30T16:37:56;98701.75;;;20.49;63.35
40982;BME280;26708;50.304;19.028;2022-10-30T16:41:07;98617.47;;;20.02;63.60
40982;BME280;26708;50.304;19.028;2022-10-30T16:50:19;98676.22;;;20.16;63.75
40982;BME280;26708;50.304;19.028;2022-10-30T16:53:24;98672.75;;;20.13;63.89
40982;BME280;26708;50.304;19.028;2022-10-30T16:56:27;98702.25;;;20.31;64.20
40982;BME280;26708;50.304;19.028;2022-10-30T16:59:33;98688.38;;;20.23;64.17
40982;BME280;26708;50.304;19.028;2022-10-30T17:02:35;98710.34;;;20.25;64.43
40982;BME280;26708;50.304;19.028;2022-10-30T17:05:42;98717.34;;;20.28;64.53
40982;BME280;26708;50.304;19.028;2022-10-30T17:08:45;98703.47;;;20.18;64.54
40982;BME280;26708;50.304;19.028;2022-10-30T17:12:05;98720.13;;;20.22;64.59
40982;BME280;26708;50.304;19.028;2022-10-30T17:15:13;98716.72;;;20.17;64.54
40982;BME280;26708;50.304;19.028;2022-10-30T17:18:17;98718.63;;;20.12;64.47
40982;BME280;26708;50.304;19.028;2022-10-30T17:26:08;98668.69;;;19.63;64.98
40982;BME280;26708;50.304;19.028;2022-10-30T17:32:43;98715.69;;;19.86;65.19
40982;BME280;26708;50.304;19.028;2022-10-30T17:36:16;98704.31;;;19.84;65.50
40982;BME280;26708;50.304;19.028;2022-10-30T17:39:18;98722.91;;;19.79;65.38
40982;BME280;26708;50.304;19.028;2022-10-30T17:42:19;98639.56;;;19.29;65.34
40982;BME280;26708;50.304;19.028;2022-10-30T17:45:20;98719.59;;;19.71;65.59
40982;BME280;26708;50.304;19.028;2022-10-30T17:48:24;98552.91;;;18.71;65.37
40982;BME280;26708;50.304;19.028;2022-10-30T17:51:27;98652.97;;;19.21;65.81
40982;BME280;26708;50.304;19.028;2022-10-30T17:54:29;98598.41;;;18.81;65.91
40982;BME280;26708;50.304;19.028;2022-10-30T17:57:30;98655.88;;;19.08;65.99
40982;BME280;26708;50.304;19.028;2022-10-30T18:00:31;98589.09;;;18.65;66.24
40982;BME280;26708;50.304;19.028;2022-10-30T18:03:32;98697.72;;;19.27;66.04
40982;BME280;26708;50.304;19.028;2022-10-30T18:06:33;98709.09;;;19.31;66.39
40982;BME280;26708;50.304;19.028;2022-10-30T18:09:38;98689.94;;;19.20;66.21
40982;BME280;26708;50.304;19.028;2022-10-30T18:12:48;98587.75;;;18.46;66.27
40982;BME280;26708;50.304;19.028;2022-10-30T18:15:57;98712.81;;;19.21;66.37
40982;BME280;26708;50.304;19.028;2022-10-30T18:19:00;98664.25;;;18.87;66.15
40982;BME280;26708;50.304;19.028;2022-10-30T18:22:33;98714.72;;;19.13;66.27
40982;BME280;26708;50.304;19.028;2022-10-30T18:25:35;98656.56;;;18.75;66.64
40982;BME280;26708;50.304;19.028;2022-10-30T18:28:38;98706.19;;;19.00;66.73
40982;BME280;26708;50.304;19.028;2022-10-30T18:31:45;98619.59;;;18.34;66.63
40982;BME280;26708;50.304;19.028;2022-10-30T18:35:33;98687.44;;;18.71;66.81
40982;BME280;26708;50.304;19.028;2022-10-30T18:38:34;98672.03;;;18.50;67.00